Time;durP1;ratioP1;P1;durP2;ratioP2;P2;SDS_P1;SDS_P2;PMS_P1;PMS_P2;Temp;Humidity;BMP_temperature;BMP_pressure;BME280_temperature;BME280_humidity;BME280_pressure;Samples;Min_cycle;Max_cycle;Signal;HPM_P1;HPM_P2
2021/12/30 00:01:14;;;;;;;18.77;7.75;;;8.00;91.70;;;;;;1872819;75;21003;-45
2021/12/30 00:03:44;;;;;;;14.73;7.15;;;8.10;91.60;;;;;;1873004;76;21585;-44
2021/12/30 00:06:14;;;;;;;18.95;7.28;;;8.20;91.60;;;;;;1872857;77;21035;-46
2021/12/30 00:08:43;;;;;;;14.70;7.50;;;8.30;91.60;;;;;;1872804;76;21059;-44
2021/12/30 00:11:13;;;;;;;18.80;6.97;;;8.30;91.60;;;;;;1872877;77;21096;-44
2021/12/30 00:13:45;;;;;;;16.35;6.03;;;8.40;91.50;;;;;;1872833;75;21082;-45
2021/12/30 00:16:14;;;;;;;18.17;7.72;;;8.40;91.50;;;;;;1873049;76;21017;-43
2021/12/30 00:18:44;;;;;;;16.02;7.72;;;8.40;91.50;;;;;;1885226;76;21066;-44
2021/12/30 00:21:14;;;;;;;17.95;8.00;;;8.50;91.40;;;;;;1891387;76;21034;-45
2021/12/30 00:23:44;;;;;;;17.00;8.00;;;8.50;91.40;;;;;;1891577;75;21030;-45
2021/12/30 00:26:13;;;;;;;20.60;8.65;;;8.40;91.20;;;;;;1891584;75;21028;-44
2021/12/30 00:28:42;;;;;;;18.95;7.78;;;8.40;91.20;;;;;;1891567;75;21065;-44
2021/12/30 00:31:12;;;;;;;16.62;7.85;;;8.30;91.20;;;;;;1891587;75;21058;-45
2021/12/30 00:33:41;;;;;;;31.62;8.55;;;8.30;91.30;;;;;;1891693;75;21022;-44
2021/12/30 00:36:13;;;;;;;16.80;8.98;;;8.30;91.40;;;;;;1891749;76;21026;-44
2021/12/30 00:38:44;;;;;;;18.23;7.90;;;8.30;91.50;;;;;;1891640;75;21046;-44
2021/12/30 00:41:14;;;;;;;15.43;7.72;;;8.20;91.30;;;;;;1891635;76;21108;-44
2021/12/30 00:43:43;;;;;;;19.42;7.97;;;8.20;91.30;;;;;;1891593;76;21006;-44
2021/12/30 00:46:13;;;;;;;17.00;7.83;;;8.10;91.40;;;;;;1891586;76;21034;-46
2021/12/30 00:48:42;;;;;;;26.37;7.40;;;8.10;91.30;;;;;;1891598;75;21031;-44
2021/12/30 00:51:12;;;;;;;21.50;7.20;;;8.10;91.40;;;;;;1891694;75;21046;-45
2021/12/30 00:53:41;;;;;;;18.62;8.10;;;8.10;91.40;;;;;;1891590;76;21095;-44
2021/12/30 00:56:10;;;;;;;20.55;7.72;;;8.10;91.30;;;;;;1891721;75;20998;-45
2021/12/30 00:58:40;;;;;;;18.50;8.35;;;8.00;91.20;;;;;;1891725;76;21026;-45
2021/12/30 01:01:09;;;;;;;20.52;7.92;;;8.00;91.40;;;;;;1891567;75;21104;-44
2021/12/30 01:03:38;;;;;;;15.65;7.42;;;8.00;91.40;;;;;;1891587;75;21088;-44
2021/12/30 01:06:08;;;;;;;17.45;7.67;;;8.00;91.40;;;;;;1891783;76;21026;-44
2021/12/30 01:08:38;;;;;;;16.42;7.83;;;8.00;91.30;;;;;;1891586;75;21046;-44
2021/12/30 01:11:08;;;;;;;16.90;7.90;;;8.00;91.20;;;;;;1891705;76;21088;-44
2021/12/30 01:13:42;;;;;;;21.65;8.83;;;7.90;91.30;;;;;;1891526;76;21161;-44
2021/12/30 01:16:17;;;;;;;21.68;7.67;;;7.90;91.40;;;;;;1891534;76;21031;-46
2021/12/30 01:21:34;;;;;;;17.95;7.65;;;8.00;91.70;;;;;;1872839;75;21051;-46
2021/12/30 01:24:04;;;;;;;20.65;8.50;;;8.10;91.70;;;;;;1872853;75;21166;-45
2021/12/30 01:26:33;;;;;;;18.23;8.58;;;8.10;91.60;;;;;;1872836;77;21074;-45
2021/12/30 01:29:03;;;;;;;17.57;8.50;;;8.20;91.70;;;;;;1872776;75;21046;-44
2021/12/30 01:31:32;;;;;;;16.30;7.75;;;8.20;91.60;;;;;;1872957;77;21027;-44
2021/12/30 01:34:02;;;;;;;19.48;7.87;;;8.30;91.60;;;;;;1872929;77;21097;-44
2021/12/30 01:36:31;;;;;;;14.90;7.12;;;8.30;91.60;;;;;;1872934;75;21046;-44
2021/12/30 01:39:00;;;;;;;18.40;8.10;;;8.40;91.60;;;;;;1872832;77;21026;-45
2021/12/30 01:41:30;;;;;;;15.45;7.60;;;8.40;91.50;;;;;;1872952;75;21031;-44
2021/12/30 01:43:59;;;;;;;22.75;9.23;;;8.40;91.40;;;;;;1872950;77;21050;-44
2021/12/30 01:46:40;;;;;;;20.40;8.15;;;8.40;91.30;;;;;;1872863;75;21073;-45
2021/12/30 01:49:10;;;;;;;18.17;7.60;;;8.30;91.10;;;;;;1872942;75;21027;-45
2021/12/30 01:51:41;;;;;;;17.27;7.37;;;8.20;91.30;;;;;;1872851;75;21027;-44
2021/12/30 01:54:11;;;;;;;35.10;9.00;;;8.20;91.50;;;;;;1872917;76;21031;-45
2021/12/30 01:56:40;;;;;;;14.25;7.92;;;8.20;91.40;;;;;;1872970;75;21031;-45
2021/12/30 01:59:09;;;;;;;16.42;8.80;;;8.30;91.40;;;;;;1872872;75;21093;-43
2021/12/30 02:01:39;;;;;;;16.97;8.33;;;8.20;91.40;;;;;;1872810;76;21031;-45
2021/12/30 02:04:08;;;;;;;19.95;8.20;;;8.20;91.50;;;;;;1872934;75;21106;-44
2021/12/30 02:06:38;;;;;;;19.12;7.97;;;8.30;91.50;;;;;;1872980;76;21010;-44
2021/12/30 02:09:07;;;;;;;23.90;8.43;;;8.20;91.40;;;;;;1872932;75;21109;-44
2021/12/30 02:11:37;;;;;;;27.30;8.60;;;8.20;91.00;;;;;;1873126;76;21047;-44
2021/12/30 02:14:06;;;;;;;22.85;8.65;;;8.00;90.70;;;;;;1872923;75;21031;-45
2021/12/30 02:16:37;;;;;;;28.67;10.80;;;7.90;90.70;;;;;;1872922;75;21102;-45
2021/12/30 02:19:07;;;;;;;19.23;8.05;;;7.70;91.10;;;;;;1878909;75;21062;-44
2021/12/30 02:21:36;;;;;;;23.38;8.65;;;7.70;91.40;;;;;;1891604;75;21088;-44
2021/12/30 02:24:07;;;;;;;20.25;8.90;;;7.70;91.70;;;;;;1891633;75;21027;-44
2021/12/30 02:26:36;;;;;;;20.95;8.75;;;7.80;91.70;;;;;;1891780;75;21038;-44
2021/12/30 02:29:06;;;;;;;16.17;7.25;;;7.90;91.70;;;;;;1891615;75;21026;-45
2021/12/30 02:31:35;;;;;;;22.25;8.48;;;7.90;91.70;;;;;;1891727;75;21034;-44
2021/12/30 02:34:05;;;;;;;19.82;8.90;;;8.00;91.50;;;;;;1891661;75;21026;-45
2021/12/30 02:36:36;;;;;;;25.72;8.63;;;8.00;91.50;;;;;;1891802;76;21100;-44
2021/12/30 02:39:08;;;;;;;18.73;8.18;;;8.00;91.50;;;;;;1891632;75;21026;-44
2021/12/30 02:41:38;;;;;;;30.57;8.50;;;7.90;91.50;;;;;;1891642;76;20995;-45
2021/12/30 02:44:09;;;;;;;25.72;8.70;;;8.00;91.60;;;;;;1891655;75;21034;-44
2021/12/30 02:46:40;;;;;;;20.72;8.98;;;7.90;91.70;;;;;;1891782;75;21023;-45
2021/12/30 02:49:09;;;;;;;37.63;10.08;;;7.90;91.40;;;;;;1891633;75;21050;-44
2021/12/30 02:51:38;;;;;;;29.32;7.33;;;7.80;91.20;;;;;;1891758;75;21070;-45
2021/12/30 02:54:08;;;;;;;33.67;8.60;;;7.80;91.40;;;;;;1891686;76;21100;-45
2021/12/30 02:56:38;;;;;;;42.85;10.85;;;7.80;91.70;;;;;;1891701;75;21034;-44
2021/12/30 02:59:07;;;;;;;29.27;9.78;;;7.80;91.60;;;;;;1891653;75;21030;-45
2021/12/30 03:01:36;;;;;;;24.00;8.48;;;7.80;91.50;;;;;;1891571;76;21465;-44
2021/12/30 03:04:06;;;;;;;24.35;8.60;;;7.70;91.40;;;;;;1891693;75;21030;-45
2021/12/30 03:06:35;;;;;;;17.60;7.30;;;7.70;91.50;;;;;;1891697;75;21093;-44
2021/12/30 03:09:05;;;;;;;39.58;8.25;;;7.70;91.40;;;;;;1891667;75;21034;-44
2021/12/30 03:11:35;;;;;;;22.90;8.53;;;7.60;91.30;;;;;;1891707;75;21030;-44
2021/12/30 03:14:04;;;;;;;28.10;8.60;;;7.60;91.40;;;;;;1891650;75;21073;-44
2021/12/30 03:16:36;;;;;;;21.20;8.65;;;7.50;91.40;;;;;;1891794;75;21069;-44
2021/12/30 03:19:06;;;;;;;50.85;9.30;;;7.50;91.30;;;;;;1891625;75;21030;-45
2021/12/30 03:21:35;;;;;;;23.00;8.98;;;7.40;91.60;;;;;;1891702;75;21050;-45
2021/12/30 03:24:06;;;;;;;19.90;7.00;;;7.40;91.70;;;;;;1891628;76;21026;-45
2021/12/30 03:26:36;;;;;;;141.07;46.68;;;7.40;91.70;;;;;;1891650;75;21022;-44
2021/12/30 03:29:06;;;;;;;125.53;52.27;;;7.50;91.80;;;;;;1891639;75;21097;-47
2021/12/30 03:31:35;;;;;;;31.45;15.25;;;7.60;91.80;;;;;;1891645;75;21011;-45
2021/12/30 03:34:04;;;;;;;37.48;16.50;;;7.60;91.80;;;;;;1891566;75;21453;-44
2021/12/30 03:36:33;;;;;;;24.50;9.03;;;7.60;91.40;;;;;;1891576;75;21058;-45
2021/12/30 03:39:03;;;;;;;20.27;8.13;;;7.60;91.50;;;;;;1891607;75;21030;-44
2021/12/30 03:41:33;;;;;;;20.82;8.15;;;7.70;91.70;;;;;;1891597;75;21002;-44
2021/12/30 03:44:03;;;;;;;24.18;7.83;;;7.70;91.80;;;;;;1891672;75;21027;-45
2021/12/30 03:46:32;;;;;;;32.95;8.20;;;7.80;91.80;;;;;;1891632;75;21030;-45
2021/12/30 03:49:01;;;;;;;19.57;6.30;;;7.80;91.70;;;;;;1891648;75;21026;-44
2021/12/30 03:51:37;;;;;;;14.73;5.58;;;7.80;91.70;;;;;;1891637;75;21101;-44
2021/12/30 03:54:02;;;;;;;28.77;6.22;;;7.90;91.70;;;;;;1890956;75;21066;-44
2021/12/30 03:56:32;;;;;;;16.57;7.05;;;7.90;91.70;;;;;;1891638;75;21030;-45
2021/12/30 03:59:01;;;;;;;21.27;7.17;;;8.00;91.60;;;;;;1891583;76;21117;-44
2021/12/30 04:01:30;;;;;;;21.10;8.75;;;8.00;91.60;;;;;;1891834;75;21092;-44
2021/12/30 04:04:00;;;;;;;21.52;7.00;;;8.00;91.50;;;;;;1891754;76;21027;-45
2021/12/30 04:06:30;;;;;;;17.12;6.05;;;8.00;91.60;;;;;;1891594;75;21171;-44
2021/12/30 04:09:00;;;;;;;25.80;7.25;;;8.00;91.70;;;;;;1891663;75;21117;-46
2021/12/30 04:11:33;;;;;;;33.40;16.42;;;8.00;91.70;;;;;;1891732;75;21100;-44
2021/12/30 04:14:02;;;;;;;22.45;7.70;;;8.10;91.70;;;;;;1891630;75;21453;-45
2021/12/30 04:16:32;;;;;;;13.58;6.22;;;8.10;91.60;;;;;;1891601;75;21096;-44
2021/12/30 04:19:02;;;;;;;16.60;5.50;;;8.10;91.60;;;;;;1891608;75;21006;-44
2021/12/30 04:21:31;;;;;;;28.83;6.50;;;8.10;91.60;;;;;;1891483;76;21116;-44
2021/12/30 04:24:01;;;;;;;14.25;5.47;;;8.00;91.50;;;;;;1891557;75;21003;-47
2021/12/30 04:26:31;;;;;;;20.92;6.92;;;8.00;91.50;;;;;;1891710;76;21635;-46
2021/12/30 04:29:00;;;;;;;13.72;6.22;;;8.00;91.60;;;;;;1891576;75;21084;-45
2021/12/30 04:31:30;;;;;;;17.02;7.00;;;8.00;91.60;;;;;;1891686;75;21077;-45
2021/12/30 04:34:00;;;;;;;18.80;6.90;;;8.00;91.60;;;;;;1891597;75;21084;-45
2021/12/30 04:36:29;;;;;;;25.65;7.25;;;8.10;91.70;;;;;;1891765;75;21084;-44
2021/12/30 04:38:58;;;;;;;15.10;6.15;;;8.10;91.70;;;;;;1891511;75;21003;-46
2021/12/30 04:41:28;;;;;;;21.25;6.87;;;8.10;91.60;;;;;;1891670;75;21091;-45
2021/12/30 04:43:57;;;;;;;16.52;5.40;;;8.10;91.60;;;;;;1891516;75;21088;-45
2021/12/30 04:46:27;;;;;;;12.68;5.47;;;8.10;91.60;;;;;;1891646;75;21089;-46
2021/12/30 04:48:56;;;;;;;28.23;7.30;;;8.10;91.60;;;;;;1891787;76;21042;-46
2021/12/30 04:51:26;;;;;;;15.78;5.25;;;8.10;91.50;;;;;;1891579;75;21023;-45
2021/12/30 04:53:55;;;;;;;21.40;5.42;;;8.10;91.50;;;;;;1891606;76;21023;-47
2021/12/30 04:56:24;;;;;;;14.75;5.33;;;8.10;91.50;;;;;;1891688;75;21096;-48
2021/12/30 04:58:54;;;;;;;17.27;5.78;;;8.00;91.60;;;;;;1891538;75;21548;-46
2021/12/30 05:01:24;;;;;;;26.17;7.53;;;8.00;91.60;;;;;;1891542;75;21081;-45
2021/12/30 05:03:53;;;;;;;17.25;5.92;;;8.00;91.70;;;;;;1891549;75;21116;-46
2021/12/30 05:06:23;;;;;;;18.87;5.03;;;8.10;91.70;;;;;;1891702;75;21034;-46
2021/12/30 05:08:52;;;;;;;23.02;6.28;;;8.00;91.60;;;;;;1891697;75;21026;-46
2021/12/30 05:11:21;;;;;;;33.20;6.67;;;8.00;91.60;;;;;;1891574;76;21034;-46
2021/12/30 05:13:51;;;;;;;23.90;7.03;;;8.10;91.70;;;;;;1891696;76;21022;-46
2021/12/30 05:16:20;;;;;;;16.25;5.30;;;8.00;91.70;;;;;;1891602;76;21026;-46
2021/12/30 05:18:55;;;;;;;14.38;6.20;;;8.10;91.70;;;;;;1891470;76;21038;-45
2021/12/30 05:21:21;;;;;;;37.03;8.30;;;8.10;91.60;;;;;;1881506;75;21563;-45
2021/12/30 05:23:50;;;;;;;46.05;11.38;;;8.10;91.70;;;;;;1872836;76;21090;-45
2021/12/30 05:26:22;;;;;;;27.80;8.30;;;8.10;91.70;;;;;;1872946;77;21039;-45
2021/12/30 05:28:50;;;;;;;24.77;6.78;;;8.10;91.70;;;;;;1872829;76;21019;-45
2021/12/30 05:31:20;;;;;;;21.33;7.92;;;8.20;91.80;;;;;;1872941;75;21055;-45
2021/12/30 05:33:49;;;;;;;35.13;8.50;;;8.20;91.80;;;;;;1872757;75;21036;-45
2021/12/30 05:36:19;;;;;;;32.90;6.95;;;8.20;91.70;;;;;;1872905;77;21039;-45
2021/12/30 05:38:48;;;;;;;17.80;7.60;;;8.20;91.60;;;;;;1872746;77;21139;-45
2021/12/30 05:41:18;;;;;;;18.50;6.75;;;8.20;91.70;;;;;;1872910;77;21003;-44
2021/12/30 05:43:47;;;;;;;25.62;8.38;;;8.20;91.70;;;;;;1872886;77;21031;-44
2021/12/30 05:46:17;;;;;;;21.27;6.95;;;8.20;91.60;;;;;;1872887;77;21047;-45
2021/12/30 05:48:46;;;;;;;26.45;9.60;;;8.20;91.60;;;;;;1872907;76;21027;-46
2021/12/30 05:51:15;;;;;;;22.52;8.58;;;8.20;91.70;;;;;;1872811;77;21096;-44
2021/12/30 05:53:45;;;;;;;24.92;9.88;;;8.20;91.60;;;;;;1872833;75;21136;-48
2021/12/30 05:56:14;;;;;;;22.07;10.43;;;8.20;91.60;;;;;;1872806;76;21350;-45
2021/12/30 05:58:43;;;;;;;22.73;9.28;;;8.20;91.60;;;;;;1872854;75;21071;-45
2021/12/30 06:01:13;;;;;;;38.80;8.03;;;8.10;91.70;;;;;;1872754;75;21090;-46
2021/12/30 06:03:42;;;;;;;38.35;10.28;;;8.20;91.70;;;;;;1872802;75;21055;-45
2021/12/30 06:06:11;;;;;;;22.73;8.03;;;8.10;91.40;;;;;;1872861;76;21030;-46
2021/12/30 06:08:41;;;;;;;30.25;8.63;;;8.00;91.20;;;;;;1872894;76;21031;-46
2021/12/30 06:11:10;;;;;;;28.23;7.83;;;7.90;91.20;;;;;;1872838;75;21023;-46
2021/12/30 06:13:39;;;;;;;30.57;9.33;;;7.80;91.50;;;;;;1872761;75;21011;-45
2021/12/30 06:16:09;;;;;;;34.98;7.70;;;7.80;91.70;;;;;;1872904;75;21059;-45
2021/12/30 06:18:38;;;;;;;57.85;9.53;;;7.90;91.70;;;;;;1872716;77;21035;-46
2021/12/30 06:21:08;;;;;;;31.93;8.70;;;7.90;91.70;;;;;;1872762;76;21071;-46
2021/12/30 06:23:37;;;;;;;26.12;8.15;;;7.90;91.40;;;;;;1872778;77;21128;-45
2021/12/30 06:26:07;;;;;;;39.98;9.30;;;7.80;91.20;;;;;;1872796;77;21027;-45
2021/12/30 06:28:36;;;;;;;21.42;8.13;;;7.80;91.30;;;;;;1872798;75;21003;-46
2021/12/30 06:31:05;;;;;;;21.40;9.15;;;7.70;91.40;;;;;;1872799;77;21078;-46
2021/12/30 06:33:35;;;;;;;20.48;8.10;;;7.70;91.50;;;;;;1872791;75;21059;-46
2021/12/30 06:36:05;;;;;;;26.20;8.73;;;7.70;91.60;;;;;;1872916;77;21035;-46
2021/12/30 06:38:34;;;;;;;19.95;7.95;;;7.70;91.60;;;;;;1872745;75;21034;-47
2021/12/30 06:41:05;;;;;;;37.80;9.38;;;7.70;91.20;;;;;;1872737;75;21007;-46
2021/12/30 06:43:34;;;;;;;24.07;8.30;;;7.60;91.10;;;;;;1872907;75;21092;-47
2021/12/30 06:46:05;;;;;;;40.00;9.05;;;7.60;91.20;;;;;;1872789;75;21101;-46
2021/12/30 06:48:34;;;;;;;38.67;8.20;;;7.60;91.00;;;;;;1872850;77;21007;-46
2021/12/30 06:51:05;;;;;;;21.20;9.18;;;7.50;91.20;;;;;;1872855;75;21081;-45
2021/12/30 06:53:34;;;;;;;31.65;8.20;;;7.50;90.70;;;;;;1872869;76;21003;-45
2021/12/30 06:56:04;;;;;;;25.45;8.13;;;7.40;90.90;;;;;;1872909;77;21089;-49
2021/12/30 06:58:33;;;;;;;15.25;7.20;;;7.30;91.10;;;;;;1872859;75;21117;-46
2021/12/30 07:01:03;;;;;;;24.23;8.88;;;7.40;91.10;;;;;;1872812;76;21031;-46
2021/12/30 07:03:33;;;;;;;22.50;8.28;;;7.40;91.00;;;;;;1872723;75;21086;-45
2021/12/30 07:06:02;;;;;;;22.05;7.65;;;7.30;91.00;;;;;;1872895;77;21030;-45
2021/12/30 07:08:32;;;;;;;22.93;7.55;;;7.40;91.10;;;;;;1871286;77;21497;-46
2021/12/30 07:11:01;;;;;;;33.30;9.05;;;7.50;91.80;;;;;;1872189;75;21077;-46
2021/12/30 07:13:30;;;;;;;16.20;7.47;;;7.90;92.10;;;;;;1872269;75;21066;-47
2021/12/30 07:16:00;;;;;;;19.42;6.47;;;8.20;92.00;;;;;;1872080;75;21058;-48
2021/12/30 07:18:29;;;;;;;17.67;7.90;;;8.50;92.00;;;;;;1872420;76;21086;-45
2021/12/30 07:20:59;;;;;;;14.58;7.28;;;8.70;91.90;;;;;;1872387;77;21152;-46
2021/12/30 07:23:29;;;;;;;12.85;7.30;;;8.90;91.70;;;;;;1889152;75;21034;-47
2021/12/30 07:25:58;;;;;;;20.23;8.88;;;9.10;91.70;;;;;;1891058;75;21085;-45
2021/12/30 07:28:27;;;;;;;31.50;9.18;;;9.20;91.50;;;;;;1917134;74;21472;-45
2021/12/30 07:30:57;;;;;;;25.85;9.88;;;9.20;91.10;;;;;;1923964;74;21023;-46
2021/12/30 07:33:26;;;;;;;22.37;10.18;;;9.10;89.20;;;;;;1924189;74;21031;-46
2021/12/30 07:35:55;;;;;;;22.02;9.30;;;8.90;90.30;;;;;;1924100;74;21062;-46
2021/12/30 07:38:24;;;;;;;18.67;10.28;;;8.70;90.40;;;;;;1892274;74;21086;-47
2021/12/30 07:40:54;;;;;;;17.17;8.85;;;8.50;90.40;;;;;;1890768;76;21036;-46
2021/12/30 07:43:23;;;;;;;16.37;8.15;;;8.40;90.00;;;;;;1890818;76;21087;-46
2021/12/30 07:45:53;;;;;;;17.62;7.90;;;8.20;90.60;;;;;;1890971;76;21075;-47
2021/12/30 07:48:22;;;;;;;15.65;7.67;;;8.10;90.90;;;;;;1890904;74;21008;-46
2021/12/30 07:50:51;;;;;;;13.48;7.05;;;8.10;90.80;;;;;;1890878;76;21032;-47
2021/12/30 07:53:20;;;;;;;18.30;10.72;;;8.00;91.00;;;;;;1890920;76;21063;-46
2021/12/30 07:55:50;;;;;;;25.72;13.20;;;8.00;91.10;;;;;;1890990;76;21012;-47
2021/12/30 07:58:19;;;;;;;19.92;11.60;;;8.00;91.10;;;;;;1890949;76;21040;-48
2021/12/30 08:00:49;;;;;;;14.95;8.13;;;8.00;90.90;;;;;;1890736;76;21101;-47
2021/12/30 08:03:19;;;;;;;17.27;8.15;;;8.00;90.90;;;;;;1891053;75;21087;-47
2021/12/30 08:05:49;;;;;;;16.67;7.75;;;7.90;90.70;;;;;;1890927;76;21060;-47
2021/12/30 08:08:18;;;;;;;12.60;7.00;;;7.90;90.70;;;;;;1890684;76;21123;-47
2021/12/30 08:10:48;;;;;;;10.88;7.03;;;7.80;90.80;;;;;;1890901;75;21079;-48
2021/12/30 08:13:18;;;;;;;12.28;7.15;;;7.80;90.80;;;;;;1891055;76;21024;-47
2021/12/30 08:15:47;;;;;;;9.55;5.87;;;7.80;90.90;;;;;;1890966;76;21146;-46
2021/12/30 08:18:17;;;;;;;13.38;7.75;;;7.80;90.80;;;;;;1890961;74;21093;-47
2021/12/30 08:20:46;;;;;;;16.57;7.37;;;7.80;90.60;;;;;;1890809;76;21027;-46
2021/12/30 08:23:16;;;;;;;14.15;7.03;;;7.80;90.20;;;;;;1880193;75;21081;-48
2021/12/30 08:25:49;;;;;;;14.03;6.90;;;7.70;90.70;;;;;;1872115;77;21073;-47
2021/12/30 08:28:17;;;;;;;15.25;6.72;;;7.70;91.00;;;;;;1871916;75;21545;-47
2021/12/30 08:30:47;;;;;;;15.55;8.33;;;7.70;90.90;;;;;;1872336;75;21041;-46
2021/12/30 08:33:16;;;;;;;11.75;6.17;;;7.80;91.10;;;;;;1872101;75;21068;-46
2021/12/30 08:35:45;;;;;;;7.47;4.83;;;7.90;91.20;;;;;;1872351;75;21076;-49
2021/12/30 08:38:16;;;;;;;7.80;5.87;;;8.00;91.20;;;;;;1872232;76;21026;-47
2021/12/30 08:40:47;;;;;;;13.50;8.65;;;8.10;91.20;;;;;;1872067;76;21041;-47
2021/12/30 08:43:17;;;;;;;10.72;5.80;;;8.20;90.60;;;;;;1872319;75;21026;-51
2021/12/30 08:45:47;;;;;;;9.28;5.72;;;8.10;90.60;;;;;;1872194;77;21484;-48
2021/12/30 08:48:16;;;;;;;10.23;6.08;;;8.10;90.80;;;;;;1872070;75;21005;-47
2021/12/30 08:50:46;;;;;;;10.53;5.50;;;8.10;90.90;;;;;;1872215;75;21116;-48
2021/12/30 08:53:16;;;;;;;9.48;5.85;;;8.20;90.90;;;;;;1872134;75;21130;-52
2021/12/30 08:55:45;;;;;;;7.40;4.53;;;8.30;90.90;;;;;;1872253;75;21131;-48
2021/12/30 08:58:15;;;;;;;12.33;5.97;;;8.30;90.80;;;;;;1872196;75;21029;-47
2021/12/30 09:00:46;;;;;;;10.30;6.83;;;8.40;90.70;;;;;;1872365;75;21092;-48
2021/12/30 09:03:16;;;;;;;14.90;7.12;;;8.40;90.60;;;;;;1872371;76;21034;-47
2021/12/30 09:05:46;;;;;;;16.25;7.35;;;8.40;90.30;;;;;;1872123;77;21092;-48
2021/12/30 09:08:15;;;;;;;11.10;7.03;;;8.40;90.50;;;;;;1872136;77;21077;-46
2021/12/30 09:10:46;;;;;;;12.10;6.30;;;8.40;90.60;;;;;;1872107;75;21091;-47
2021/12/30 09:13:16;;;;;;;14.40;7.95;;;8.40;90.70;;;;;;1872268;76;21065;-46
2021/12/30 09:15:46;;;;;;;12.82;7.10;;;8.50;90.70;;;;;;1872264;76;21100;-46
2021/12/30 09:18:16;;;;;;;12.90;7.58;;;8.60;90.70;;;;;;1872322;77;21045;-46
2021/12/30 09:20:45;;;;;;;13.45;7.75;;;8.60;90.60;;;;;;1872056;76;21033;-46
2021/12/30 09:23:15;;;;;;;15.45;8.58;;;8.70;90.30;;;;;;1872015;75;21123;-47
2021/12/30 09:25:45;;;;;;;15.20;6.95;;;8.60;90.10;;;;;;1872155;75;21030;-48
2021/12/30 09:28:14;;;;;;;15.88;7.65;;;8.70;90.40;;;;;;1872165;75;21073;-47
2021/12/30 09:30:45;;;;;;;10.98;7.08;;;8.70;90.40;;;;;;1872129;77;21261;-48
2021/12/30 09:33:15;;;;;;;16.37;7.47;;;8.70;90.30;;;;;;1872291;75;21041;-47
2021/12/30 09:35:47;;;;;;;12.98;7.12;;;8.70;90.30;;;;;;1872202;75;21057;-48
2021/12/30 09:38:16;;;;;;;14.47;9.20;;;8.70;90.40;;;;;;1872064;77;21558;-47
2021/12/30 09:40:45;;;;;;;13.40;7.67;;;8.70;90.40;;;;;;1872098;75;21112;-47
2021/12/30 09:43:16;;;;;;;16.27;8.85;;;8.80;90.40;;;;;;1872091;75;21025;-47
2021/12/30 09:45:45;;;;;;;18.07;8.25;;;8.80;90.20;;;;;;1872109;75;21084;-47
2021/12/30 09:48:16;;;;;;;12.95;8.33;;;8.80;90.30;;;;;;1872249;75;21029;-48
2021/12/30 09:50:48;;;;;;;19.40;11.38;;;8.80;90.40;;;;;;1872103;75;21129;-47
2021/12/30 09:53:19;;;;;;;15.72;8.73;;;8.90;90.50;;;;;;1872262;75;21491;-47
2021/12/30 09:55:49;;;;;;;14.78;7.58;;;8.90;90.50;;;;;;1872273;76;21029;-50
2021/12/30 09:58:18;;;;;;;14.10;8.95;;;9.00;90.40;;;;;;1872118;75;21013;-47
2021/12/30 10:00:50;;;;;;;12.18;8.80;;;9.00;90.40;;;;;;1872041;75;21103;-47
2021/12/30 10:03:20;;;;;;;13.50;8.68;;;9.00;90.40;;;;;;1872215;77;21460;-48
2021/12/30 10:05:49;;;;;;;13.35;9.55;;;9.00;90.40;;;;;;1872124;77;21002;-45
2021/12/30 10:08:26;;;;;;;15.53;9.43;;;9.00;90.30;;;;;;1872086;77;21025;-47
2021/12/30 10:11:00;;;;;;;16.93;10.23;;;9.00;90.30;;;;;;1872138;76;21151;-46
2021/12/30 10:13:31;;;;;;;12.60;9.28;;;9.00;90.20;;;;;;1872115;75;21464;-47
2021/12/30 10:16:06;;;;;;;13.65;9.15;;;8.90;90.20;;;;;;1872232;75;21073;-49
2021/12/30 10:18:50;;;;;;;11.95;8.68;;;9.00;90.30;;;;;;1871821;75;21073;-48
2021/12/30 10:21:26;;;;;;;13.28;9.00;;;9.00;90.40;;;;;;1872113;76;21061;-48
2021/12/30 10:23:57;;;;;;;13.08;9.18;;;9.00;90.00;;;;;;1872290;75;21131;-46
2021/12/30 10:26:27;;;;;;;14.70;9.10;;;9.00;89.50;;;;;;1872041;77;21130;-47
2021/12/30 10:28:59;;;;;;;12.80;8.95;;;9.00;90.10;;;;;;1872102;77;21138;-47
2021/12/30 10:31:30;;;;;;;17.12;10.78;;;9.00;90.10;;;;;;1872180;77;21061;-50
2021/12/30 10:34:02;;;;;;;14.90;10.15;;;9.10;89.60;;;;;;1872107;75;21021;-49
2021/12/30 10:36:40;;;;;;;19.80;11.35;;;9.10;89.30;;;;;;1871931;77;21162;-47
2021/12/30 10:39:34;;;;;;;15.93;11.48;;;9.10;88.90;;;;;;1872293;77;21033;-48
2021/12/30 10:42:15;;;;;;;16.87;12.10;;;9.00;87.90;;;;;;1871893;75;21001;-46
2021/12/30 10:44:53;;;;;;;23.15;13.13;;;9.00;88.90;;;;;;1872015;77;21026;-46
2021/12/30 10:47:27;;;;;;;18.45;12.43;;;8.90;87.20;;;;;;1872251;76;21091;-45
2021/12/30 10:50:07;;;;;;;26.05;14.07;;;8.90;88.90;;;;;;1872136;76;21136;-47
2021/12/30 10:52:47;;;;;;;21.73;14.23;;;8.80;88.60;;;;;;1872097;75;21144;-49
2021/12/30 10:55:17;;;;;;;20.75;13.00;;;8.90;89.10;;;;;;1872223;75;21112;-48
2021/12/30 10:57:46;;;;;;;19.70;12.07;;;8.90;87.60;;;;;;1872220;76;21130;-46
2021/12/30 11:00:27;;;;;;;23.45;13.90;;;8.90;86.90;;;;;;1872172;75;21076;-47
2021/12/30 11:02:58;;;;;;;22.52;12.03;;;8.80;87.90;;;;;;1871730;75;21049;-47
2021/12/30 11:05:27;;;;;;;25.95;14.63;;;8.80;86.60;;;;;;1867357;75;20998;-50
2021/12/30 11:07:57;;;;;;;27.10;16.15;;;8.70;87.90;;;;;;1872124;76;21071;-49
2021/12/30 11:10:37;;;;;;;22.30;13.68;;;8.70;87.30;;;;;;1872156;76;21120;-52
2021/12/30 11:13:17;;;;;;;24.72;15.53;;;8.60;87.00;;;;;;1872259;76;21076;-48
2021/12/30 11:15:46;;;;;;;25.23;15.13;;;8.50;87.90;;;;;;1872316;76;21045;-47
2021/12/30 11:18:18;;;;;;;26.97;14.47;;;8.50;88.90;;;;;;1872133;75;21068;-46
2021/12/30 11:20:49;;;;;;;23.10;13.88;;;8.50;88.90;;;;;;1872123;75;22047;-51
2021/12/30 11:23:18;;;;;;;25.82;13.98;;;8.50;87.30;;;;;;1872262;75;21622;-48
2021/12/30 11:25:48;;;;;;;20.45;11.03;;;8.40;87.70;;;;;;1888027;76;21110;-49
2021/12/30 11:28:17;;;;;;;17.20;10.28;;;8.50;88.30;;;;;;1890856;76;21024;-48
2021/12/30 11:30:46;;;;;;;18.52;9.93;;;8.40;87.50;;;;;;1890953;76;21079;-48
2021/12/30 11:33:16;;;;;;;16.27;10.05;;;8.20;87.30;;;;;;1891029;74;21044;-49
2021/12/30 11:35:45;;;;;;;14.47;8.85;;;8.10;88.20;;;;;;1891652;76;21058;-48
2021/12/30 11:38:15;;;;;;;14.87;9.98;;;8.10;88.90;;;;;;1891669;76;21087;-47
2021/12/30 11:40:44;;;;;;;26.37;15.80;;;8.10;88.50;;;;;;1891567;74;21024;-48
2021/12/30 11:43:16;;;;;;;16.17;8.78;;;8.10;88.80;;;;;;1891764;75;21029;-49
2021/12/30 11:45:45;;;;;;;16.37;9.58;;;8.00;88.20;;;;;;1891656;75;21470;-47
2021/12/30 11:48:38;;;;;;;16.48;9.28;;;8.00;88.40;;;;;;1891815;76;21028;-46
2021/12/30 11:51:10;;;;;;;13.85;8.53;;;8.00;88.70;;;;;;1890929;75;21021;-46
2021/12/30 11:53:40;;;;;;;16.70;10.10;;;8.00;88.50;;;;;;1891674;76;21086;-47
2021/12/30 11:56:17;;;;;;;14.60;9.50;;;8.00;88.50;;;;;;1891693;76;21036;-46
2021/12/30 11:58:59;;;;;;;14.58;8.75;;;8.00;88.80;;;;;;1891651;76;21152;-47
2021/12/30 12:01:30;;;;;;;16.65;9.68;;;8.00;89.30;;;;;;1891490;76;21094;-49
2021/12/30 12:04:05;;;;;;;14.83;9.88;;;8.10;89.30;;;;;;1891581;76;21093;-46
2021/12/30 12:06:46;;;;;;;14.90;8.88;;;8.20;89.10;;;;;;1891138;75;21020;-46
2021/12/30 12:09:25;;;;;;;15.45;9.40;;;8.20;88.70;;;;;;1891679;75;21028;-48
2021/12/30 12:11:59;;;;;;;16.05;9.30;;;8.20;88.90;;;;;;1891669;76;21458;-46
2021/12/30 12:14:41;;;;;;;14.63;8.68;;;8.20;88.20;;;;;;1891690;75;21102;-47
2021/12/30 12:17:18;;;;;;;18.85;9.98;;;8.10;88.50;;;;;;1891653;76;21106;-46
2021/12/30 12:19:54;;;;;;;14.95;9.00;;;8.10;89.10;;;;;;1891288;75;21040;-46
2021/12/30 12:22:26;;;;;;;13.93;9.43;;;8.10;89.00;;;;;;1891487;76;21082;-46
2021/12/30 12:25:16;;;;;;;12.95;8.63;;;8.00;88.80;;;;;;1886712;76;21590;-46
2021/12/30 12:27:49;;;;;;;16.62;9.93;;;8.00;88.50;;;;;;1872982;76;21104;-47
2021/12/30 12:30:26;;;;;;;16.00;9.15;;;7.90;88.70;;;;;;1872282;75;21033;-48
2021/12/30 12:32:56;;;;;;;15.88;9.48;;;7.80;89.10;;;;;;1871385;75;21022;-46
2021/12/30 12:35:28;;;;;;;15.15;9.00;;;7.80;89.60;;;;;;1872927;75;21029;-47
2021/12/30 12:38:00;;;;;;;17.75;10.28;;;7.90;89.50;;;;;;1872982;76;21108;-46
2021/12/30 12:40:41;;;;;;;14.63;9.25;;;7.90;89.60;;;;;;1872793;75;21088;-45
2021/12/30 12:43:16;;;;;;;13.75;9.28;;;8.00;89.50;;;;;;1872796;75;21025;-45
2021/12/30 12:46:00;;;;;;;16.23;9.68;;;8.00;89.40;;;;;;1871768;75;21504;-45
2021/12/30 12:48:32;;;;;;;15.40;9.15;;;8.00;89.40;;;;;;1872886;76;21013;-46
2021/12/30 12:51:07;;;;;;;20.45;11.33;;;8.00;89.20;;;;;;1872801;75;21508;-46
2021/12/30 12:53:39;;;;;;;19.82;11.08;;;8.10;89.70;;;;;;1872863;75;21054;-46
2021/12/30 12:56:11;;;;;;;19.67;11.57;;;8.00;89.40;;;;;;1871891;75;21045;-45
2021/12/30 12:58:43;;;;;;;23.77;12.28;;;8.10;89.70;;;;;;1872994;75;21500;-46
2021/12/30 13:01:15;;;;;;;23.25;11.73;;;8.10;89.70;;;;;;1872755;76;21009;-46
2021/12/30 13:03:44;;;;;;;18.55;11.15;;;8.10;89.70;;;;;;1873057;75;21488;-46
2021/12/30 13:06:19;;;;;;;18.70;10.55;;;8.10;89.60;;;;;;1872889;75;21025;-47